Neilburg, Canada
Current Conditions -  °F | °C
As of 11:00 AM on Wednesday 26 Nov 2014 (Local Time) from CYLL Reporting Station
Overcast Overcast  
Wind Chill: -14°   Ceiling: 3600
Heat Index:   Visibility: 15mi
Dew Point: -2°   Wind: 10mph
Humidity: 85%   Direction: 140°SE
Pressure: 30.26"   Gusts: NA
Location:  52.83°N, 109.63°W
Report Text: CYLL 261700Z 14009KT 15SM BKN036 OVC250 M17/M19 A3026 RMK SC7CI1 SLP310
Loading
Personal Weather Stations






























Interactive Weather Map New forecast layout! Learn more

10-Day Weather Forecast

Advertisements
Track Severe Weather on mobile